sensor_id;sensor_type;location;lat;lon;timestamp;P1;durP1;ratioP1;P2;durP2;ratioP2
21837;SDS011;11081;45.946;6.140;2022-08-01T00:01:15;5.35;;;1.63;;
21837;SDS011;11081;45.946;6.140;2022-08-01T00:03:43;4.13;;;1.88;;
21837;SDS011;11081;45.946;6.140;2022-08-01T00:06:11;4.68;;;1.45;;
21837;SDS011;11081;45.946;6.140;2022-08-01T00:08:39;2.10;;;1.52;;
21837;SDS011;11081;45.946;6.140;2022-08-01T00:11:07;3.13;;;1.50;;
21837;SDS011;11081;45.946;6.140;2022-08-01T00:13:35;2.53;;;1.65;;
21837;SDS011;11081;45.946;6.140;2022-08-01T00:16:05;2.33;;;1.35;;
21837;SDS011;11081;45.946;6.140;2022-08-01T00:18:33;3.83;;;1.60;;
21837;SDS011;11081;45.946;6.140;2022-08-01T00:21:02;2.55;;;1.75;;
21837;SDS011;11081;45.946;6.140;2022-08-01T00:23:30;3.50;;;1.73;;
21837;SDS011;11081;45.946;6.140;2022-08-01T00:25:58;3.70;;;1.67;;
21837;SDS011;11081;45.946;6.140;2022-08-01T00:28:26;3.35;;;1.50;;
21837;SDS011;11081;45.946;6.140;2022-08-01T00:30:54;2.38;;;1.58;;
21837;SDS011;11081;45.946;6.140;2022-08-01T00:33:23;1.35;;;1.25;;
21837;SDS011;11081;45.946;6.140;2022-08-01T00:35:51;3.03;;;1.77;;
21837;SDS011;11081;45.946;6.140;2022-08-01T00:38:19;2.38;;;1.73;;
21837;SDS011;11081;45.946;6.140;2022-08-01T00:40:48;2.90;;;1.80;;
21837;SDS011;11081;45.946;6.140;2022-08-01T00:43:16;2.00;;;1.40;;
21837;SDS011;11081;45.946;6.140;2022-08-01T00:45:44;1.70;;;1.48;;
21837;SDS011;11081;45.946;6.140;2022-08-01T00:48:12;7.25;;;1.90;;
21837;SDS011;11081;45.946;6.140;2022-08-01T00:50:41;5.55;;;1.70;;
21837;SDS011;11081;45.946;6.140;2022-08-01T00:53:09;3.08;;;1.63;;
21837;SDS011;11081;45.946;6.140;2022-08-01T00:55:44;2.40;;;1.38;;
21837;SDS011;11081;45.946;6.140;2022-08-01T00:58:14;3.05;;;1.55;;
21837;SDS011;11081;45.946;6.140;2022-08-01T01:00:43;3.88;;;1.67;;
21837;SDS011;11081;45.946;6.140;2022-08-01T01:03:20;3.63;;;1.58;;
21837;SDS011;11081;45.946;6.140;2022-08-01T01:06:14;3.58;;;1.80;;
21837;SDS011;11081;45.946;6.140;2022-08-01T01:09:00;2.10;;;1.60;;
21837;SDS011;11081;45.946;6.140;2022-08-01T01:11:43;5.07;;;1.90;;
21837;SDS011;11081;45.946;6.140;2022-08-01T01:14:17;2.33;;;1.80;;
21837;SDS011;11081;45.946;6.140;2022-08-01T01:16:51;3.10;;;1.77;;
21837;SDS011;11081;45.946;6.140;2022-08-01T01:19:23;1.77;;;1.35;;
21837;SDS011;11081;45.946;6.140;2022-08-01T01:22:05;5.10;;;1.92;;
21837;SDS011;11081;45.946;6.140;2022-08-01T01:24:47;3.15;;;1.45;;
21837;SDS011;11081;45.946;6.140;2022-08-01T01:27:47;4.78;;;1.77;;
21837;SDS011;11081;45.946;6.140;2022-08-01T01:30:26;3.20;;;1.45;;
21837;SDS011;11081;45.946;6.140;2022-08-01T01:32:59;2.17;;;1.70;;
21837;SDS011;11081;45.946;6.140;2022-08-01T01:35:31;4.28;;;1.77;;
21837;SDS011;11081;45.946;6.140;2022-08-01T01:38:04;8.07;;;2.10;;
21837;SDS011;11081;45.946;6.140;2022-08-01T01:40:36;3.90;;;1.50;;
21837;SDS011;11081;45.946;6.140;2022-08-01T01:43:05;1.40;;;1.20;;
21837;SDS011;11081;45.946;6.140;2022-08-01T01:45:39;3.28;;;1.80;;
21837;SDS011;11081;45.946;6.140;2022-08-01T01:48:08;3.72;;;1.77;;
21837;SDS011;11081;45.946;6.140;2022-08-01T01:50:37;3.28;;;1.63;;
21837;SDS011;11081;45.946;6.140;2022-08-01T01:53:07;5.28;;;1.70;;
21837;SDS011;11081;45.946;6.140;2022-08-01T01:55:40;5.57;;;1.80;;
21837;SDS011;11081;45.946;6.140;2022-08-01T01:58:16;2.75;;;1.40;;
21837;SDS011;11081;45.946;6.140;2022-08-01T02:00:47;5.88;;;1.67;;
21837;SDS011;11081;45.946;6.140;2022-08-01T02:03:18;2.50;;;1.70;;
21837;SDS011;11081;45.946;6.140;2022-08-01T02:05:48;2.65;;;1.77;;
21837;SDS011;11081;45.946;6.140;2022-08-01T02:08:18;2.97;;;1.60;;
21837;SDS011;11081;45.946;6.140;2022-08-01T02:10:50;2.95;;;1.63;;
21837;SDS011;11081;45.946;6.140;2022-08-01T02:13:33;3.50;;;1.80;;
21837;SDS011;11081;45.946;6.140;2022-08-01T02:16:05;2.38;;;1.42;;
21837;SDS011;11081;45.946;6.140;2022-08-01T02:18:34;3.38;;;1.73;;
21837;SDS011;11081;45.946;6.140;2022-08-01T02:21:03;3.47;;;1.80;;
21837;SDS011;11081;45.946;6.140;2022-08-01T02:23:33;2.58;;;1.23;;
21837;SDS011;11081;45.946;6.140;2022-08-01T02:26:05;3.75;;;1.77;;
21837;SDS011;11081;45.946;6.140;2022-08-01T02:28:38;2.80;;;1.50;;
21837;SDS011;11081;45.946;6.140;2022-08-01T02:31:16;1.70;;;1.48;;
21837;SDS011;11081;45.946;6.140;2022-08-01T02:33:48;3.78;;;1.63;;
21837;SDS011;11081;45.946;6.140;2022-08-01T02:36:21;2.65;;;1.63;;
21837;SDS011;11081;45.946;6.140;2022-08-01T02:38:59;2.05;;;1.60;;
21837;SDS011;11081;45.946;6.140;2022-08-01T02:41:29;3.63;;;1.45;;
21837;SDS011;11081;45.946;6.140;2022-08-01T02:44:02;3.25;;;1.83;;
21837;SDS011;11081;45.946;6.140;2022-08-01T02:46:35;14.82;;;1.95;;
21837;SDS011;11081;45.946;6.140;2022-08-01T02:49:06;2.85;;;1.70;;
21837;SDS011;11081;45.946;6.140;2022-08-01T02:51:36;4.03;;;1.70;;
21837;SDS011;11081;45.946;6.140;2022-08-01T02:54:07;2.85;;;1.60;;
21837;SDS011;11081;45.946;6.140;2022-08-01T02:56:37;4.35;;;1.67;;
21837;SDS011;11081;45.946;6.140;2022-08-01T02:59:07;2.15;;;1.70;;
21837;SDS011;11081;45.946;6.140;2022-08-01T03:01:41;2.05;;;1.50;;
21837;SDS011;11081;45.946;6.140;2022-08-01T03:04:11;3.10;;;1.50;;
21837;SDS011;11081;45.946;6.140;2022-08-01T03:06:40;3.45;;;1.50;;
21837;SDS011;11081;45.946;6.140;2022-08-01T03:09:10;4.65;;;1.65;;
21837;SDS011;11081;45.946;6.140;2022-08-01T03:11:42;5.57;;;1.48;;
21837;SDS011;11081;45.946;6.140;2022-08-01T03:14:11;4.63;;;1.48;;
21837;SDS011;11081;45.946;6.140;2022-08-01T03:16:43;5.88;;;1.58;;
21837;SDS011;11081;45.946;6.140;2022-08-01T03:19:13;3.08;;;1.67;;
21837;SDS011;11081;45.946;6.140;2022-08-01T03:21:45;1.60;;;1.50;;
21837;SDS011;11081;45.946;6.140;2022-08-01T03:24:15;2.65;;;1.77;;
21837;SDS011;11081;45.946;6.140;2022-08-01T03:26:45;1.73;;;1.58;;
21837;SDS011;11081;45.946;6.140;2022-08-01T03:29:15;4.53;;;1.67;;
21837;SDS011;11081;45.946;6.140;2022-08-01T03:31:47;2.20;;;1.90;;
21837;SDS011;11081;45.946;6.140;2022-08-01T03:34:16;3.40;;;1.50;;
21837;SDS011;11081;45.946;6.140;2022-08-01T03:36:48;2.55;;;1.80;;
21837;SDS011;11081;45.946;6.140;2022-08-01T03:39:21;2.25;;;1.73;;
21837;SDS011;11081;45.946;6.140;2022-08-01T03:41:54;2.33;;;1.52;;
21837;SDS011;11081;45.946;6.140;2022-08-01T03:44:26;3.70;;;1.75;;
21837;SDS011;11081;45.946;6.140;2022-08-01T03:46:59;4.15;;;1.80;;
21837;SDS011;11081;45.946;6.140;2022-08-01T03:49:30;2.88;;;1.77;;
21837;SDS011;11081;45.946;6.140;2022-08-01T03:52:00;2.28;;;1.50;;
21837;SDS011;11081;45.946;6.140;2022-08-01T03:54:33;1.67;;;1.48;;
21837;SDS011;11081;45.946;6.140;2022-08-01T03:57:03;2.15;;;1.50;;
21837;SDS011;11081;45.946;6.140;2022-08-01T03:59:34;2.63;;;1.63;;
21837;SDS011;11081;45.946;6.140;2022-08-01T04:02:06;2.15;;;1.70;;
21837;SDS011;11081;45.946;6.140;2022-08-01T04:04:34;2.60;;;1.73;;
21837;SDS011;11081;45.946;6.140;2022-08-01T04:07:03;3.50;;;1.58;;
21837;SDS011;11081;45.946;6.140;2022-08-01T04:09:33;5.03;;;1.85;;
21837;SDS011;11081;45.946;6.140;2022-08-01T04:12:01;4.18;;;1.85;;
21837;SDS011;11081;45.946;6.140;2022-08-01T04:14:37;2.22;;;1.73;;
21837;SDS011;11081;45.946;6.140;2022-08-01T04:17:07;2.42;;;1.63;;
21837;SDS011;11081;45.946;6.140;2022-08-01T04:19:35;2.28;;;1.40;;
21837;SDS011;11081;45.946;6.140;2022-08-01T04:22:03;2.78;;;1.60;;
21837;SDS011;11081;45.946;6.140;2022-08-01T04:24:32;2.10;;;1.60;;
21837;SDS011;11081;45.946;6.140;2022-08-01T04:27:04;2.70;;;1.60;;
21837;SDS011;11081;45.946;6.140;2022-08-01T04:29:37;2.88;;;1.70;;
21837;SDS011;11081;45.946;6.140;2022-08-01T04:32:08;4.28;;;1.80;;
21837;SDS011;11081;45.946;6.140;2022-08-01T04:34:40;4.10;;;1.60;;
21837;SDS011;11081;45.946;6.140;2022-08-01T04:37:12;3.03;;;2.00;;
21837;SDS011;11081;45.946;6.140;2022-08-01T04:39:43;4.70;;;1.70;;
21837;SDS011;11081;45.946;6.140;2022-08-01T04:42:16;5.20;;;1.92;;
21837;SDS011;11081;45.946;6.140;2022-08-01T04:44:55;3.78;;;1.95;;
21837;SDS011;11081;45.946;6.140;2022-08-01T04:47:25;2.35;;;1.90;;
21837;SDS011;11081;45.946;6.140;2022-08-01T04:49:54;2.67;;;1.75;;
21837;SDS011;11081;45.946;6.140;2022-08-01T04:52:23;4.05;;;1.95;;
21837;SDS011;11081;45.946;6.140;2022-08-01T04:55:00;3.90;;;1.55;;
21837;SDS011;11081;45.946;6.140;2022-08-01T04:57:28;2.88;;;1.55;;
21837;SDS011;11081;45.946;6.140;2022-08-01T04:59:57;3.67;;;1.75;;
21837;SDS011;11081;45.946;6.140;2022-08-01T05:02:26;2.40;;;1.80;;
21837;SDS011;11081;45.946;6.140;2022-08-01T05:04:55;3.78;;;1.73;;
21837;SDS011;11081;45.946;6.140;2022-08-01T05:07:23;2.08;;;1.80;;
21837;SDS011;11081;45.946;6.140;2022-08-01T05:09:51;3.25;;;1.50;;
21837;SDS011;11081;45.946;6.140;2022-08-01T05:12:19;2.67;;;1.70;;
21837;SDS011;11081;45.946;6.140;2022-08-01T05:14:47;2.55;;;1.80;;
21837;SDS011;11081;45.946;6.140;2022-08-01T05:17:15;2.88;;;1.50;;
21837;SDS011;11081;45.946;6.140;2022-08-01T05:19:45;2.00;;;1.73;;
21837;SDS011;11081;45.946;6.140;2022-08-01T05:22:13;3.38;;;2.10;;
21837;SDS011;11081;45.946;6.140;2022-08-01T05:24:41;5.18;;;1.98;;
21837;SDS011;11081;45.946;6.140;2022-08-01T05:27:10;2.33;;;1.50;;
21837;SDS011;11081;45.946;6.140;2022-08-01T05:29:41;4.72;;;1.98;;
21837;SDS011;11081;45.946;6.140;2022-08-01T05:32:10;2.38;;;1.55;;
21837;SDS011;11081;45.946;6.140;2022-08-01T05:34:38;2.20;;;1.90;;
21837;SDS011;11081;45.946;6.140;2022-08-01T05:37:08;3.53;;;1.70;;
21837;SDS011;11081;45.946;6.140;2022-08-01T05:39:36;4.00;;;1.70;;
21837;SDS011;11081;45.946;6.140;2022-08-01T05:42:04;5.38;;;1.60;;
21837;SDS011;11081;45.946;6.140;2022-08-01T05:44:33;6.75;;;1.83;;
21837;SDS011;11081;45.946;6.140;2022-08-01T05:47:01;6.15;;;1.85;;
21837;SDS011;11081;45.946;6.140;2022-08-01T05:49:30;6.32;;;1.70;;
21837;SDS011;11081;45.946;6.140;2022-08-01T05:51:58;2.40;;;1.55;;
21837;SDS011;11081;45.946;6.140;2022-08-01T05:54:28;3.92;;;1.60;;
21837;SDS011;11081;45.946;6.140;2022-08-01T05:56:57;3.20;;;1.85;;
21837;SDS011;11081;45.946;6.140;2022-08-01T05:59:27;9.18;;;2.28;;
21837;SDS011;11081;45.946;6.140;2022-08-01T06:01:56;2.47;;;1.80;;
21837;SDS011;11081;45.946;6.140;2022-08-01T06:04:24;6.70;;;2.38;;
21837;SDS011;11081;45.946;6.140;2022-08-01T06:06:52;2.10;;;1.67;;
21837;SDS011;11081;45.946;6.140;2022-08-01T06:09:20;3.58;;;1.95;;
21837;SDS011;11081;45.946;6.140;2022-08-01T06:11:50;3.88;;;1.63;;
21837;SDS011;11081;45.946;6.140;2022-08-01T06:14:18;5.00;;;2.00;;
21837;SDS011;11081;45.946;6.140;2022-08-01T06:16:46;2.92;;;2.00;;
21837;SDS011;11081;45.946;6.140;2022-08-01T06:19:14;3.40;;;2.05;;
21837;SDS011;11081;45.946;6.140;2022-08-01T06:21:42;6.65;;;1.90;;
21837;SDS011;11081;45.946;6.140;2022-08-01T06:24:10;3.17;;;1.70;;
21837;SDS011;11081;45.946;6.140;2022-08-01T06:26:38;7.57;;;2.08;;
21837;SDS011;11081;45.946;6.140;2022-08-01T06:29:08;7.93;;;2.03;;
21837;SDS011;11081;45.946;6.140;2022-08-01T06:31:37;6.10;;;2.20;;
21837;SDS011;11081;45.946;6.140;2022-08-01T06:34:05;6.63;;;2.40;;
21837;SDS011;11081;45.946;6.140;2022-08-01T06:36:33;6.05;;;2.08;;
21837;SDS011;11081;45.946;6.140;2022-08-01T06:39:01;4.13;;;1.88;;
21837;SDS011;11081;45.946;6.140;2022-08-01T06:41:29;7.07;;;2.08;;
21837;SDS011;11081;45.946;6.140;2022-08-01T06:43:57;7.68;;;1.88;;
21837;SDS011;11081;45.946;6.140;2022-08-01T06:46:30;6.13;;;2.40;;
21837;SDS011;11081;45.946;6.140;2022-08-01T06:49:00;6.35;;;2.40;;
21837;SDS011;11081;45.946;6.140;2022-08-01T06:51:28;6.53;;;2.38;;
21837;SDS011;11081;45.946;6.140;2022-08-01T06:53:56;7.78;;;2.70;;
21837;SDS011;11081;45.946;6.140;2022-08-01T06:56:24;4.40;;;1.90;;
21837;SDS011;11081;45.946;6.140;2022-08-01T06:58:52;4.18;;;2.45;;
21837;SDS011;11081;45.946;6.140;2022-08-01T07:01:22;5.32;;;2.30;;
21837;SDS011;11081;45.946;6.140;2022-08-01T07:03:52;4.78;;;2.53;;
21837;SDS011;11081;45.946;6.140;2022-08-01T07:06:21;4.68;;;2.95;;
21837;SDS011;11081;45.946;6.140;2022-08-01T07:08:49;2.25;;;1.92;;
21837;SDS011;11081;45.946;6.140;2022-08-01T07:11:18;4.30;;;1.90;;
21837;SDS011;11081;45.946;6.140;2022-08-01T07:13:46;5.43;;;2.10;;
21837;SDS011;11081;45.946;6.140;2022-08-01T07:16:14;3.42;;;2.05;;
21837;SDS011;11081;45.946;6.140;2022-08-01T07:18:43;6.43;;;1.90;;
21837;SDS011;11081;45.946;6.140;2022-08-01T07:21:12;2.13;;;1.83;;
21837;SDS011;11081;45.946;6.140;2022-08-01T07:24:00;5.68;;;2.10;;
21837;SDS011;11081;45.946;6.140;2022-08-01T07:26:39;5.32;;;2.40;;
21837;SDS011;11081;45.946;6.140;2022-08-01T07:29:20;4.47;;;2.60;;
21837;SDS011;11081;45.946;6.140;2022-08-01T07:31:49;7.38;;;1.92;;
21837;SDS011;11081;45.946;6.140;2022-08-01T07:34:17;4.68;;;2.15;;
21837;SDS011;11081;45.946;6.140;2022-08-01T07:36:47;5.22;;;2.25;;
21837;SDS011;11081;45.946;6.140;2022-08-01T07:39:15;4.55;;;2.30;;
21837;SDS011;11081;45.946;6.140;2022-08-01T07:41:43;5.43;;;2.58;;
21837;SDS011;11081;45.946;6.140;2022-08-01T07:44:31;5.85;;;2.15;;
21837;SDS011;11081;45.946;6.140;2022-08-01T07:46:59;8.38;;;2.05;;
21837;SDS011;11081;45.946;6.140;2022-08-01T07:49:27;4.03;;;2.30;;
21837;SDS011;11081;45.946;6.140;2022-08-01T07:51:57;5.50;;;1.90;;
21837;SDS011;11081;45.946;6.140;2022-08-01T07:54:29;5.10;;;2.20;;
21837;SDS011;11081;45.946;6.140;2022-08-01T07:56:59;2.30;;;1.77;;
21837;SDS011;11081;45.946;6.140;2022-08-01T07:59:27;5.47;;;2.28;;
21837;SDS011;11081;45.946;6.140;2022-08-01T08:01:55;7.20;;;1.98;;
21837;SDS011;11081;45.946;6.140;2022-08-01T08:04:23;5.82;;;2.30;;
21837;SDS011;11081;45.946;6.140;2022-08-01T08:06:51;4.05;;;1.90;;
21837;SDS011;11081;45.946;6.140;2022-08-01T08:09:21;2.60;;;1.92;;
21837;SDS011;11081;45.946;6.140;2022-08-01T08:11:49;5.80;;;1.80;;
21837;SDS011;11081;45.946;6.140;2022-08-01T08:14:18;5.22;;;2.10;;
21837;SDS011;11081;45.946;6.140;2022-08-01T08:16:57;8.13;;;2.17;;
21837;SDS011;11081;45.946;6.140;2022-08-01T08:19:27;4.43;;;2.03;;
21837;SDS011;11081;45.946;6.140;2022-08-01T08:22:04;3.40;;;1.70;;
21837;SDS011;11081;45.946;6.140;2022-08-01T08:24:35;6.55;;;2.08;;
21837;SDS011;11081;45.946;6.140;2022-08-01T08:27:12;16.13;;;2.30;;
21837;SDS011;11081;45.946;6.140;2022-08-01T08:29:40;9.82;;;2.42;;
21837;SDS011;11081;45.946;6.140;2022-08-01T08:32:08;11.07;;;2.50;;
21837;SDS011;11081;45.946;6.140;2022-08-01T08:34:36;3.47;;;2.13;;
21837;SDS011;11081;45.946;6.140;2022-08-01T08:37:05;12.30;;;3.08;;
21837;SDS011;11081;45.946;6.140;2022-08-01T08:39:36;4.95;;;2.10;;
21837;SDS011;11081;45.946;6.140;2022-08-01T08:42:08;8.20;;;2.30;;
21837;SDS011;11081;45.946;6.140;2022-08-01T08:44:37;14.57;;;3.13;;
21837;SDS011;11081;45.946;6.140;2022-08-01T08:47:10;9.98;;;2.40;;
21837;SDS011;11081;45.946;6.140;2022-08-01T08:49:45;9.02;;;2.33;;
21837;SDS011;11081;45.946;6.140;2022-08-01T08:52:15;4.45;;;1.70;;
21837;SDS011;11081;45.946;6.140;2022-08-01T08:54:46;6.13;;;2.10;;
21837;SDS011;11081;45.946;6.140;2022-08-01T08:57:15;7.38;;;2.17;;
21837;SDS011;11081;45.946;6.140;2022-08-01T08:59:46;8.13;;;2.22;;
21837;SDS011;11081;45.946;6.140;2022-08-01T09:02:18;7.07;;;2.20;;
21837;SDS011;11081;45.946;6.140;2022-08-01T09:04:46;5.45;;;1.88;;
21837;SDS011;11081;45.946;6.140;2022-08-01T09:07:15;3.35;;;2.00;;
21837;SDS011;11081;45.946;6.140;2022-08-01T09:09:43;7.18;;;1.80;;
21837;SDS011;11081;45.946;6.140;2022-08-01T09:12:17;7.53;;;2.10;;
21837;SDS011;11081;45.946;6.140;2022-08-01T09:14:46;11.48;;;1.95;;
21837;SDS011;11081;45.946;6.140;2022-08-01T09:17:16;7.53;;;2.28;;
21837;SDS011;11081;45.946;6.140;2022-08-01T09:19:45;3.35;;;2.00;;
21837;SDS011;11081;45.946;6.140;2022-08-01T09:22:15;4.60;;;1.67;;
21837;SDS011;11081;45.946;6.140;2022-08-01T09:24:56;6.43;;;2.10;;
21837;SDS011;11081;45.946;6.140;2022-08-01T09:27:27;3.95;;;2.03;;
21837;SDS011;11081;45.946;6.140;2022-08-01T09:30:07;3.35;;;1.60;;
21837;SDS011;11081;45.946;6.140;2022-08-01T09:32:37;4.72;;;1.80;;
21837;SDS011;11081;45.946;6.140;2022-08-01T09:35:24;4.85;;;1.50;;
21837;SDS011;11081;45.946;6.140;2022-08-01T09:38:12;7.28;;;2.25;;
21837;SDS011;11081;45.946;6.140;2022-08-01T09:40:45;3.97;;;1.90;;
21837;SDS011;11081;45.946;6.140;2022-08-01T09:43:23;3.75;;;1.48;;
21837;SDS011;11081;45.946;6.140;2022-08-01T09:45:52;8.27;;;1.85;;
21837;SDS011;11081;45.946;6.140;2022-08-01T09:48:23;4.15;;;1.45;;
21837;SDS011;11081;45.946;6.140;2022-08-01T09:50:55;7.60;;;1.58;;
21837;SDS011;11081;45.946;6.140;2022-08-01T09:53:43;7.50;;;1.40;;
21837;SDS011;11081;45.946;6.140;2022-08-01T09:56:17;3.17;;;1.35;;
21837;SDS011;11081;45.946;6.140;2022-08-01T09:58:53;3.33;;;1.30;;
21837;SDS011;11081;45.946;6.140;2022-08-01T10:01:28;6.00;;;1.30;;
21837;SDS011;11081;45.946;6.140;2022-08-01T10:04:04;1.85;;;1.52;;
21837;SDS011;11081;45.946;6.140;2022-08-01T10:06:36;3.42;;;1.38;;
21837;SDS011;11081;45.946;6.140;2022-08-01T10:09:04;3.42;;;1.40;;
21837;SDS011;11081;45.946;6.140;2022-08-01T10:11:32;9.10;;;1.45;;
21837;SDS011;11081;45.946;6.140;2022-08-01T10:14:06;2.42;;;1.40;;
21837;SDS011;11081;45.946;6.140;2022-08-01T10:16:35;4.03;;;1.25;;
21837;SDS011;11081;45.946;6.140;2022-08-01T10:19:05;4.05;;;1.40;;
21837;SDS011;11081;45.946;6.140;2022-08-01T10:21:40;2.80;;;1.38;;
21837;SDS011;11081;45.946;6.140;2022-08-01T10:24:24;3.85;;;1.10;;
21837;SDS011;11081;45.946;6.140;2022-08-01T10:26:56;3.75;;;1.52;;
21837;SDS011;11081;45.946;6.140;2022-08-01T10:29:41;1.75;;;1.25;;
21837;SDS011;11081;45.946;6.140;2022-08-01T10:32:33;9.88;;;1.73;;
21837;SDS011;11081;45.946;6.140;2022-08-01T10:35:05;3.63;;;1.50;;
21837;SDS011;11081;45.946;6.140;2022-08-01T10:37:41;4.18;;;1.40;;
21837;SDS011;11081;45.946;6.140;2022-08-01T10:40:18;5.07;;;1.35;;
21837;SDS011;11081;45.946;6.140;2022-08-01T10:43:02;3.67;;;1.10;;
21837;SDS011;11081;45.946;6.140;2022-08-01T10:45:32;3.45;;;1.25;;
21837;SDS011;11081;45.946;6.140;2022-08-01T10:48:03;4.72;;;1.23;;
21837;SDS011;11081;45.946;6.140;2022-08-01T10:50:37;6.18;;;1.42;;
21837;SDS011;11081;45.946;6.140;2022-08-01T10:53:14;13.02;;;1.40;;
21837;SDS011;11081;45.946;6.140;2022-08-01T10:55:59;8.27;;;1.25;;
21837;SDS011;11081;45.946;6.140;2022-08-01T10:58:29;5.97;;;1.48;;
21837;SDS011;11081;45.946;6.140;2022-08-01T11:01:19;4.32;;;1.50;;
21837;SDS011;11081;45.946;6.140;2022-08-01T11:04:05;3.03;;;1.27;;
21837;SDS011;11081;45.946;6.140;2022-08-01T11:07:02;1.30;;;0.90;;
21837;SDS011;11081;45.946;6.140;2022-08-01T11:09:42;2.22;;;1.00;;
21837;SDS011;11081;45.946;6.140;2022-08-01T11:12:18;4.45;;;1.10;;
21837;SDS011;11081;45.946;6.140;2022-08-01T11:18:32;1.85;;;0.90;;
21837;SDS011;11081;45.946;6.140;2022-08-01T11:21:03;3.45;;;0.90;;
21837;SDS011;11081;45.946;6.140;2022-08-01T11:23:51;7.75;;;1.58;;
21837;SDS011;11081;45.946;6.140;2022-08-01T11:26:20;4.05;;;1.17;;
21837;SDS011;11081;45.946;6.140;2022-08-01T11:29:15;3.72;;;0.90;;
21837;SDS011;11081;45.946;6.140;2022-08-01T11:31:47;3.45;;;1.00;;
21837;SDS011;11081;45.946;6.140;2022-08-01T11:34:17;6.47;;;0.90;;
21837;SDS011;11081;45.946;6.140;2022-08-01T11:36:46;2.05;;;1.17;;
21837;SDS011;11081;45.946;6.140;2022-08-01T11:39:25;5.80;;;1.30;;
21837;SDS011;11081;45.946;6.140;2022-08-01T11:41:55;7.18;;;1.00;;
21837;SDS011;11081;45.946;6.140;2022-08-01T11:44:49;2.05;;;0.80;;
21837;SDS011;11081;45.946;6.140;2022-08-01T11:47:18;3.25;;;0.80;;
21837;SDS011;11081;45.946;6.140;2022-08-01T11:50:07;1.60;;;1.15;;
21837;SDS011;11081;45.946;6.140;2022-08-01T11:52:59;2.30;;;1.00;;
21837;SDS011;11081;45.946;6.140;2022-08-01T11:55:27;1.55;;;1.00;;
21837;SDS011;11081;45.946;6.140;2022-08-01T11:58:00;3.53;;;0.80;;
21837;SDS011;11081;45.946;6.140;2022-08-01T12:00:29;6.63;;;0.98;;
21837;SDS011;11081;45.946;6.140;2022-08-01T12:02:58;2.05;;;0.77;;
21837;SDS011;11081;45.946;6.140;2022-08-01T12:05:32;0.95;;;0.80;;
21837;SDS011;11081;45.946;6.140;2022-08-01T12:08:08;1.23;;;0.80;;
21837;SDS011;11081;45.946;6.140;2022-08-01T12:10:36;2.70;;;0.70;;
21837;SDS011;11081;45.946;6.140;2022-08-01T12:13:12;1.35;;;0.77;;
21837;SDS011;11081;45.946;6.140;2022-08-01T12:15:40;1.80;;;0.90;;
21837;SDS011;11081;45.946;6.140;2022-08-01T12:18:09;1.10;;;0.63;;
21837;SDS011;11081;45.946;6.140;2022-08-01T12:20:39;1.17;;;0.93;;
21837;SDS011;11081;45.946;6.140;2022-08-01T12:23:22;3.25;;;1.20;;
21837;SDS011;11081;45.946;6.140;2022-08-01T12:25:50;0.90;;;0.80;;
21837;SDS011;11081;45.946;6.140;2022-08-01T12:28:19;1.95;;;0.73;;
21837;SDS011;11081;45.946;6.140;2022-08-01T12:30:47;4.03;;;0.80;;
21837;SDS011;11081;45.946;6.140;2022-08-01T12:33:17;1.63;;;0.80;;
21837;SDS011;11081;45.946;6.140;2022-08-01T12:35:47;1.77;;;0.65;;
21837;SDS011;11081;45.946;6.140;2022-08-01T12:38:16;1.73;;;0.70;;
21837;SDS011;11081;45.946;6.140;2022-08-01T12:40:48;1.88;;;0.80;;
21837;SDS011;11081;45.946;6.140;2022-08-01T12:43:19;1.75;;;0.93;;
21837;SDS011;11081;45.946;6.140;2022-08-01T12:45:54;3.08;;;0.70;;
21837;SDS011;11081;45.946;6.140;2022-08-01T12:48:24;0.77;;;0.60;;
21837;SDS011;11081;45.946;6.140;2022-08-01T12:50:54;1.20;;;0.57;;
21837;SDS011;11081;45.946;6.140;2022-08-01T12:53:26;1.30;;;0.80;;
21837;SDS011;11081;45.946;6.140;2022-08-01T12:56:06;0.98;;;0.73;;
21837;SDS011;11081;45.946;6.140;2022-08-01T12:58:35;1.15;;;0.70;;
21837;SDS011;11081;45.946;6.140;2022-08-01T13:01:04;2.63;;;0.60;;
21837;SDS011;11081;45.946;6.140;2022-08-01T13:03:33;0.50;;;0.50;;
21837;SDS011;11081;45.946;6.140;2022-08-01T13:06:05;0.93;;;0.60;;
21837;SDS011;11081;45.946;6.140;2022-08-01T13:08:38;1.70;;;0.70;;
21837;SDS011;11081;45.946;6.140;2022-08-01T13:11:07;4.38;;;0.90;;
21837;SDS011;11081;45.946;6.140;2022-08-01T13:13:40;2.35;;;0.80;;
21837;SDS011;11081;45.946;6.140;2022-08-01T13:16:09;1.17;;;0.90;;
21837;SDS011;11081;45.946;6.140;2022-08-01T13:18:58;1.45;;;0.90;;
21837;SDS011;11081;45.946;6.140;2022-08-01T13:21:28;4.35;;;0.80;;
21837;SDS011;11081;45.946;6.140;2022-08-01T13:24:22;2.70;;;1.10;;
21837;SDS011;11081;45.946;6.140;2022-08-01T13:26:52;5.13;;;0.82;;
21837;SDS011;11081;45.946;6.140;2022-08-01T13:29:29;3.55;;;1.05;;
21837;SDS011;11081;45.946;6.140;2022-08-01T13:31:59;2.55;;;1.10;;
21837;SDS011;11081;45.946;6.140;2022-08-01T13:34:30;2.15;;;0.75;;
21837;SDS011;11081;45.946;6.140;2022-08-01T13:37:00;2.50;;;1.10;;
21837;SDS011;11081;45.946;6.140;2022-08-01T13:39:33;0.90;;;0.68;;
21837;SDS011;11081;45.946;6.140;2022-08-01T13:42:08;0.93;;;0.73;;
21837;SDS011;11081;45.946;6.140;2022-08-01T13:44:44;3.55;;;0.88;;
21837;SDS011;11081;45.946;6.140;2022-08-01T13:47:12;1.27;;;0.90;;
21837;SDS011;11081;45.946;6.140;2022-08-01T13:49:42;0.70;;;0.68;;
21837;SDS011;11081;45.946;6.140;2022-08-01T13:52:12;1.17;;;0.82;;
21837;SDS011;11081;45.946;6.140;2022-08-01T13:54:40;1.38;;;0.80;;
21837;SDS011;11081;45.946;6.140;2022-08-01T13:57:08;2.03;;;0.80;;
21837;SDS011;11081;45.946;6.140;2022-08-01T13:59:36;2.55;;;0.90;;
21837;SDS011;11081;45.946;6.140;2022-08-01T14:02:05;2.05;;;0.82;;
21837;SDS011;11081;45.946;6.140;2022-08-01T14:04:33;3.28;;;0.93;;
21837;SDS011;11081;45.946;6.140;2022-08-01T14:07:01;4.30;;;1.00;;
21837;SDS011;11081;45.946;6.140;2022-08-01T14:09:37;1.67;;;0.98;;
21837;SDS011;11081;45.946;6.140;2022-08-01T14:12:10;0.70;;;0.70;;
21837;SDS011;11081;45.946;6.140;2022-08-01T14:14:38;1.27;;;0.85;;
21837;SDS011;11081;45.946;6.140;2022-08-01T14:17:08;1.35;;;0.80;;
21837;SDS011;11081;45.946;6.140;2022-08-01T14:19:36;2.53;;;0.80;;
21837;SDS011;11081;45.946;6.140;2022-08-01T14:22:09;2.28;;;0.90;;
21837;SDS011;11081;45.946;6.140;2022-08-01T14:24:39;4.28;;;0.98;;
21837;SDS011;11081;45.946;6.140;2022-08-01T14:27:08;1.83;;;0.65;;
21837;SDS011;11081;45.946;6.140;2022-08-01T14:29:36;2.50;;;0.88;;
21837;SDS011;11081;45.946;6.140;2022-08-01T14:32:24;2.05;;;1.13;;
21837;SDS011;11081;45.946;6.140;2022-08-01T14:34:54;5.22;;;0.90;;
21837;SDS011;11081;45.946;6.140;2022-08-01T14:37:22;1.10;;;0.73;;
21837;SDS011;11081;45.946;6.140;2022-08-01T14:39:56;1.73;;;0.98;;
21837;SDS011;11081;45.946;6.140;2022-08-01T14:42:25;3.20;;;0.88;;
21837;SDS011;11081;45.946;6.140;2022-08-01T14:44:53;3.53;;;0.82;;
21837;SDS011;11081;45.946;6.140;2022-08-01T14:47:21;1.05;;;0.70;;
21837;SDS011;11081;45.946;6.140;2022-08-01T14:49:49;2.35;;;0.77;;
21837;SDS011;11081;45.946;6.140;2022-08-01T14:52:18;2.55;;;0.90;;
21837;SDS011;11081;45.946;6.140;2022-08-01T14:54:46;4.93;;;0.85;;
21837;SDS011;11081;45.946;6.140;2022-08-01T14:57:16;4.10;;;1.02;;
21837;SDS011;11081;45.946;6.140;2022-08-01T14:59:45;3.53;;;0.90;;
21837;SDS011;11081;45.946;6.140;2022-08-01T15:02:13;1.58;;;0.90;;
21837;SDS011;11081;45.946;6.140;2022-08-01T15:04:43;2.35;;;0.60;;
21837;SDS011;11081;45.946;6.140;2022-08-01T15:07:12;1.35;;;0.70;;
21837;SDS011;11081;45.946;6.140;2022-08-01T15:09:41;1.63;;;0.90;;
21837;SDS011;11081;45.946;6.140;2022-08-01T15:12:09;1.58;;;0.80;;
21837;SDS011;11081;45.946;6.140;2022-08-01T15:14:39;2.22;;;0.70;;
21837;SDS011;11081;45.946;6.140;2022-08-01T15:17:17;3.63;;;1.25;;
21837;SDS011;11081;45.946;6.140;2022-08-01T15:19:48;1.73;;;0.80;;